Hancock, Wisconsin
Current Conditions -  °F | °C
As of 11:56 PM on Friday 28 Nov 2014 (Local Time) from KY50 Reporting Station
Haze Haze  
Wind Chill: 19°   Ceiling: 800
Heat Index: 25°   Visibility: 4mi
Dew Point: 24°   Wind: 5mph
Humidity: 96%   Direction: 90°E
Pressure: 29.81"   Gusts: NA
Location:  44.13°N, 89.52°W
Report Text: KY50 290556Z AUTO 09004KT 4SM BR OVC008 M04/M04 A2981 RMK AO2 TSNO 56025 60000 T10381044 11027 21050 410271166 SLP105
Loading
Personal Weather Stations






























Interactive Weather Map New forecast layout! Learn more

10-Day Weather Forecast

Advertisements
Track Severe Weather on mobile